Time;durP1;ratioP1;P1;durP2;ratioP2;P2;SDS_P1;SDS_P2;PMS_P1;PMS_P2;Temp;Humidity;BMP_temperature;BMP_pressure;BME280_temperature;BME280_humidity;BME280_pressure;Samples;Min_cycle;Max_cycle;Signal;HPM_P1;HPM_P2
2021/12/20 00:00:18;;;;;;;24.93;11.50;;;-0.90;99.90;;;;;;5016165;28;21026;-60
2021/12/20 00:02:47;;;;;;;23.17;11.33;;;-0.90;99.90;;;;;;5011610;28;20509;-60
2021/12/20 00:05:14;;;;;;;25.23;11.80;;;-0.90;99.90;;;;;;5019807;28;20445;-59
2021/12/20 00:07:40;;;;;;;26.10;11.17;;;-0.90;99.90;;;;;;5023091;28;20884;-60
2021/12/20 00:10:06;;;;;;;18.03;10.00;;;-0.80;99.90;;;;;;5022960;28;20506;-58
2021/12/20 00:12:32;;;;;;;20.70;10.30;;;-0.90;99.90;;;;;;5026488;28;20224;-60
2021/12/20 00:14:58;;;;;;;23.80;10.60;;;-0.80;99.90;;;;;;5025876;28;20420;-60
2021/12/20 00:17:23;;;;;;;19.60;10.67;;;-0.80;99.90;;;;;;5025228;28;20483;-60
2021/12/20 00:19:49;;;;;;;17.97;10.53;;;-0.80;99.90;;;;;;5026587;28;20180;-59
2021/12/20 00:22:15;;;;;;;20.80;11.23;;;-0.80;99.90;;;;;;5028099;28;20185;-60
2021/12/20 00:24:40;;;;;;;20.67;11.20;;;-0.80;99.90;;;;;;5026633;28;20196;-59
2021/12/20 00:27:08;;;;;;;20.50;10.90;;;-0.80;99.90;;;;;;5040443;28;20214;-60
2021/12/20 00:29:35;;;;;;;18.83;10.50;;;-0.80;99.90;;;;;;5025552;28;20173;-59
2021/12/20 00:32:01;;;;;;;23.53;11.13;;;-0.80;99.90;;;;;;5041252;28;20461;-59
2021/12/20 00:34:26;;;;;;;19.37;10.97;;;-0.80;99.90;;;;;;5024446;28;20432;-59
2021/12/20 00:37:01;;;;;;;20.00;11.50;;;-0.70;99.90;;;;;;5021796;28;20440;-58
2021/12/20 00:42:11;;;;;;;17.80;10.60;;;-0.70;99.90;;;;;;5025009;28;20459;-60
2021/12/20 00:44:36;;;;;;;21.00;10.93;;;-0.70;99.90;;;;;;5024686;28;20947;-60
2021/12/20 00:47:02;;;;;;;22.50;10.33;;;-0.70;99.90;;;;;;5026340;28;20205;-60
2021/12/20 00:49:28;;;;;;;21.13;11.47;;;-0.60;99.90;;;;;;5023017;28;20189;-60
2021/12/20 00:51:54;;;;;;;22.03;10.43;;;-0.70;99.90;;;;;;5023259;28;20428;-58
2021/12/20 00:54:19;;;;;;;20.83;10.93;;;-0.60;99.90;;;;;;5025742;28;20205;-60
2021/12/20 00:56:45;;;;;;;21.33;11.23;;;-0.60;99.90;;;;;;5026916;28;20200;-60
2021/12/20 00:59:10;;;;;;;18.97;10.10;;;-0.60;99.90;;;;;;5029209;28;20193;-60
2021/12/20 01:01:36;;;;;;;21.13;10.50;;;-0.60;99.90;;;;;;5025911;28;20179;-57
2021/12/20 01:04:03;;;;;;;27.20;12.07;;;-0.60;99.90;;;;;;5028191;28;20278;-60
2021/12/20 01:06:28;;;;;;;21.77;11.20;;;-0.60;99.90;;;;;;5026494;28;20251;-59
2021/12/20 01:08:54;;;;;;;20.70;10.57;;;-0.60;99.90;;;;;;5045869;28;20976;-60
2021/12/20 01:11:24;;;;;;;21.87;10.73;;;-0.60;99.90;;;;;;5027788;28;20185;-60
2021/12/20 01:13:50;;;;;;;16.53;9.73;;;-0.60;99.90;;;;;;5030961;28;20182;-59
2021/12/20 01:16:16;;;;;;;17.60;9.50;;;-0.60;99.90;;;;;;5030518;28;20416;-60
2021/12/20 01:18:42;;;;;;;18.87;9.37;;;-0.60;99.90;;;;;;5027367;28;20498;-60
2021/12/20 01:21:08;;;;;;;25.40;11.03;;;-0.60;99.90;;;;;;5028066;28;20451;-60
2021/12/20 01:23:36;;;;;;;17.67;9.50;;;-0.50;99.90;;;;;;5029254;28;20931;-59
2021/12/20 01:26:03;;;;;;;17.53;10.30;;;-0.50;99.90;;;;;;5031261;28;20761;-59
2021/12/20 01:28:28;;;;;;;17.80;9.83;;;-0.50;99.90;;;;;;5043316;28;20473;-60
2021/12/20 01:30:54;;;;;;;18.33;9.67;;;-0.50;99.90;;;;;;5029302;28;20422;-59
2021/12/20 01:33:20;;;;;;;14.17;8.77;;;-0.50;99.90;;;;;;5028837;28;20679;-59
2021/12/20 01:35:45;;;;;;;22.27;8.80;;;-0.50;99.90;;;;;;5025581;28;20355;-60
2021/12/20 01:38:11;;;;;;;16.30;8.70;;;-0.50;99.90;;;;;;5030238;28;20193;-59
2021/12/20 01:40:38;;;;;;;17.77;8.77;;;-0.50;99.90;;;;;;5025740;28;20176;-60
2021/12/20 01:43:06;;;;;;;16.37;9.27;;;-0.50;99.90;;;;;;5025315;28;20268;-57
2021/12/20 01:45:32;;;;;;;20.60;9.00;;;-0.40;99.90;;;;;;5027931;28;21207;-57
2021/12/20 01:48:03;;;;;;;18.67;9.70;;;-0.40;99.90;;;;;;5042426;28;20618;-60
2021/12/20 01:53:14;;;;;;;18.03;9.70;;;-0.30;99.90;;;;;;5027518;28;20485;-60
2021/12/20 01:55:40;;;;;;;20.10;10.33;;;-0.30;99.90;;;;;;5027092;28;20974;-59
2021/12/20 01:58:06;;;;;;;15.37;9.10;;;-0.30;99.90;;;;;;5028882;28;20460;-60
2021/12/20 02:00:34;;;;;;;19.33;10.87;;;-0.30;99.90;;;;;;5027229;28;20431;-60
2021/12/20 02:03:02;;;;;;;19.90;10.80;;;-0.30;99.90;;;;;;5026550;28;20432;-58
2021/12/20 02:05:51;;;;;;;23.83;8.57;;;-0.20;99.90;;;;;;5029698;28;20456;-60
2021/12/20 02:08:23;;;;;;;23.67;10.13;;;-0.20;99.90;;;;;;5026463;28;20848;-59
2021/12/20 02:10:53;;;;;;;18.03;10.10;;;-0.20;99.90;;;;;;5026414;28;20687;-60
2021/12/20 02:13:19;;;;;;;19.17;9.30;;;-0.20;99.90;;;;;;5028881;28;20452;-60
2021/12/20 02:15:45;;;;;;;16.80;8.97;;;-0.20;99.90;;;;;;5028654;28;20957;-59
2021/12/20 02:18:12;;;;;;;19.87;10.37;;;-0.20;99.90;;;;;;5025182;28;20554;-60
2021/12/20 02:20:38;;;;;;;16.83;9.10;;;-0.20;99.90;;;;;;5027354;28;20588;-60
2021/12/20 02:23:05;;;;;;;18.43;9.37;;;-0.20;99.90;;;;;;5027581;28;20939;-58
2021/12/20 02:25:32;;;;;;;19.50;9.87;;;-0.20;99.90;;;;;;5027817;28;20444;-60
2021/12/20 02:28:06;;;;;;;16.23;9.63;;;-0.20;99.90;;;;;;5027591;28;21036;-59
2021/12/20 02:38:38;;;;;;;16.20;9.10;;;-0.20;99.90;;;;;;5027914;28;20555;-60
2021/12/20 02:41:10;;;;;;;15.60;9.10;;;-0.20;99.90;;;;;;5025668;28;20441;-59
2021/12/20 02:43:41;;;;;;;13.53;8.37;;;-0.20;99.90;;;;;;5024676;28;20285;-60
2021/12/20 02:48:52;;;;;;;14.77;8.90;;;-0.20;99.90;;;;;;5025194;28;20470;-59
2021/12/20 02:51:18;;;;;;;17.60;9.30;;;-0.30;99.90;;;;;;5039331;28;20452;-60
2021/12/20 02:53:44;;;;;;;16.13;9.47;;;-0.20;99.90;;;;;;5041508;28;20969;-60
2021/12/20 02:56:09;;;;;;;23.13;9.43;;;-0.20;99.90;;;;;;5025450;28;20569;-57
2021/12/20 02:58:35;;;;;;;16.90;10.43;;;-0.20;99.90;;;;;;5023761;28;20682;-59
2021/12/20 03:01:01;;;;;;;21.10;10.00;;;-0.20;99.90;;;;;;5039756;28;20181;-60
2021/12/20 03:03:27;;;;;;;18.20;10.00;;;-0.20;99.90;;;;;;5024268;28;20400;-60
2021/12/20 03:05:53;;;;;;;13.23;8.37;;;-0.20;99.90;;;;;;5020330;28;20182;-60
2021/12/20 03:08:22;;;;;;;16.43;9.20;;;-0.20;99.90;;;;;;5025486;28;20484;-60
2021/12/20 03:10:48;;;;;;;16.10;8.63;;;-0.20;99.90;;;;;;5021462;28;20483;-60
2021/12/20 03:13:14;;;;;;;19.97;9.70;;;-0.20;99.90;;;;;;5020881;28;20501;-59
2021/12/20 03:15:40;;;;;;;21.83;11.13;;;-0.20;99.90;;;;;;5039741;28;20467;-60
2021/12/20 03:18:06;;;;;;;20.10;11.03;;;-0.20;99.90;;;;;;5024942;28;20215;-59
2021/12/20 03:20:32;;;;;;;20.07;10.07;;;-0.20;99.90;;;;;;5022753;28;20436;-60
2021/12/20 03:22:58;;;;;;;17.00;9.47;;;-0.20;99.90;;;;;;5022734;28;20201;-59
2021/12/20 03:25:24;;;;;;;21.20;10.10;;;-0.30;99.90;;;;;;5020786;28;20189;-60
2021/12/20 03:27:49;;;;;;;18.83;10.47;;;-0.30;99.90;;;;;;5023411;28;20229;-60
2021/12/20 03:30:16;;;;;;;20.37;10.10;;;-0.20;99.90;;;;;;5022958;28;20698;-60
2021/12/20 03:32:41;;;;;;;16.70;9.57;;;-0.20;99.90;;;;;;5039676;28;20308;-59
2021/12/20 03:35:08;;;;;;;20.70;9.23;;;-0.20;99.90;;;;;;5023301;28;20527;-60
2021/12/20 03:37:34;;;;;;;23.43;11.40;;;-0.20;99.90;;;;;;5039751;28;20203;-60
2021/12/20 03:39:59;;;;;;;16.90;9.63;;;-0.20;99.90;;;;;;5024296;28;20506;-60
2021/12/20 03:42:28;;;;;;;15.30;8.43;;;-0.20;99.90;;;;;;5020643;28;20184;-60
2021/12/20 03:44:54;;;;;;;18.27;10.00;;;-0.20;99.90;;;;;;5021958;28;20189;-60
2021/12/20 03:47:20;;;;;;;15.33;8.93;;;-0.10;99.90;;;;;;5023132;28;21223;-59
2021/12/20 03:49:45;;;;;;;14.93;9.93;;;-0.10;99.90;;;;;;5023717;28;20463;-60
2021/12/20 03:52:11;;;;;;;15.70;8.57;;;-0.10;99.90;;;;;;5023570;28;20499;-60
2021/12/20 03:54:38;;;;;;;21.50;8.80;;;-0.10;99.90;;;;;;5023035;28;20224;-60
2021/12/20 03:57:04;;;;;;;14.93;8.40;;;0.00;99.90;;;;;;5023422;28;20219;-59
2021/12/20 03:59:30;;;;;;;17.23;9.53;;;0.00;99.90;;;;;;5024438;28;21179;-60
2021/12/20 04:01:57;;;;;;;15.00;8.30;;;0.00;99.90;;;;;;5025547;28;20416;-60
2021/12/20 04:04:24;;;;;;;18.40;8.90;;;0.00;99.90;;;;;;5043173;28;20236;-60
2021/12/20 04:06:50;;;;;;;15.17;9.47;;;0.00;99.90;;;;;;5023114;28;20444;-60
2021/12/20 04:09:16;;;;;;;16.40;9.60;;;0.00;99.90;;;;;;5023902;28;20474;-59
2021/12/20 04:11:42;;;;;;;14.83;8.97;;;0.00;99.90;;;;;;5025143;28;20428;-60
2021/12/20 04:14:07;;;;;;;19.23;9.73;;;0.00;99.90;;;;;;5023692;28;21014;-60
2021/12/20 04:16:36;;;;;;;15.33;8.10;;;0.00;99.90;;;;;;5022030;28;20561;-60
2021/12/20 04:19:02;;;;;;;15.13;7.70;;;0.00;99.90;;;;;;5023892;28;20178;-60
2021/12/20 04:21:28;;;;;;;12.93;8.40;;;0.00;99.90;;;;;;5022624;28;20456;-59
2021/12/20 04:23:53;;;;;;;13.80;7.90;;;0.00;99.90;;;;;;5023486;28;20527;-60
2021/12/20 04:26:19;;;;;;;17.30;9.03;;;0.10;99.90;;;;;;5022603;28;20185;-59
2021/12/20 04:28:45;;;;;;;19.97;9.57;;;0.10;99.90;;;;;;5073710;22;20441;-57
2021/12/20 04:31:11;;;;;;;20.80;9.53;;;0.10;99.90;;;;;;5020941;28;20217;-57
2021/12/20 04:33:36;;;;;;;16.60;8.67;;;0.20;99.90;;;;;;5024449;28;20185;-56
2021/12/20 04:36:02;;;;;;;14.70;8.30;;;0.10;99.90;;;;;;5025641;28;20249;-55
2021/12/20 04:38:30;;;;;;;17.77;9.00;;;0.20;99.90;;;;;;5026345;28;20198;-56
2021/12/20 04:40:55;;;;;;;15.07;8.53;;;0.20;99.90;;;;;;5026456;28;20409;-54
2021/12/20 04:43:21;;;;;;;15.27;9.60;;;0.20;99.90;;;;;;5027019;28;20758;-57
2021/12/20 04:45:47;;;;;;;18.07;9.63;;;0.20;99.90;;;;;;5025851;28;20190;-57
2021/12/20 04:48:13;;;;;;;21.80;9.33;;;0.20;99.90;;;;;;5024182;28;20891;-56
2021/12/20 04:50:39;;;;;;;19.60;10.77;;;0.30;99.90;;;;;;5025248;28;20691;-57
2021/12/20 04:53:05;;;;;;;19.60;10.70;;;0.30;99.90;;;;;;5021308;28;20220;-57
2021/12/20 04:55:31;;;;;;;18.93;10.67;;;0.30;99.90;;;;;;5027111;28;20432;-56
2021/12/20 04:57:59;;;;;;;26.27;11.30;;;0.30;99.90;;;;;;5024689;28;20451;-53
2021/12/20 05:00:29;;;;;;;22.67;10.67;;;0.40;99.90;;;;;;5023033;28;20432;-57
2021/12/20 05:02:55;;;;;;;23.47;11.33;;;0.40;99.90;;;;;;5025970;28;20555;-56
2021/12/20 05:05:21;;;;;;;20.90;9.53;;;0.40;99.90;;;;;;5024250;28;20514;-56
2021/12/20 05:07:48;;;;;;;18.50;10.00;;;0.40;99.90;;;;;;5025931;28;20464;-56
2021/12/20 05:10:26;;;;;;;20.67;10.80;;;0.40;99.90;;;;;;5024766;28;20429;-56
2021/12/20 05:12:56;;;;;;;14.87;8.90;;;0.50;99.90;;;;;;5026056;28;20455;-57
2021/12/20 05:15:22;;;;;;;18.00;9.40;;;0.50;99.90;;;;;;5027318;28;20433;-57
2021/12/20 05:17:48;;;;;;;16.03;9.03;;;0.50;99.90;;;;;;5024344;28;21066;-56
2021/12/20 05:20:14;;;;;;;19.67;9.37;;;0.40;99.90;;;;;;5020627;28;20460;-55
2021/12/20 05:22:40;;;;;;;16.70;9.10;;;0.40;99.90;;;;;;5025435;28;20518;-59
2021/12/20 05:25:06;;;;;;;15.37;9.50;;;0.40;99.90;;;;;;5024149;28;20265;-56
2021/12/20 05:27:32;;;;;;;15.77;9.10;;;0.40;99.90;;;;;;5019088;28;20915;-57
2021/12/20 05:29:59;;;;;;;18.60;8.93;;;0.40;99.90;;;;;;5024416;28;20423;-57
2021/12/20 05:32:25;;;;;;;15.30;9.27;;;0.40;99.90;;;;;;5019518;28;20180;-58
2021/12/20 05:34:51;;;;;;;23.03;11.17;;;0.40;99.90;;;;;;5022681;28;20457;-55
2021/12/20 05:37:16;;;;;;;18.63;9.60;;;0.40;99.90;;;;;;5020529;28;20312;-56
2021/12/20 05:39:44;;;;;;;20.60;9.93;;;0.40;99.90;;;;;;5020331;28;20683;-59
2021/12/20 05:42:10;;;;;;;20.63;10.50;;;0.40;99.90;;;;;;5016669;28;20172;-59
2021/12/20 05:44:35;;;;;;;18.10;9.47;;;0.50;99.90;;;;;;5017938;28;20498;-57
2021/12/20 05:47:01;;;;;;;18.97;9.87;;;0.40;99.90;;;;;;5022237;28;20178;-55
2021/12/20 05:49:27;;;;;;;17.00;9.80;;;0.40;99.90;;;;;;5022136;28;20234;-56
2021/12/20 05:51:53;;;;;;;22.07;10.27;;;0.40;99.90;;;;;;5016941;28;20926;-55
2021/12/20 05:54:18;;;;;;;18.20;9.97;;;0.40;99.90;;;;;;5022289;28;20977;-58
2021/12/20 05:56:44;;;;;;;15.33;9.63;;;0.40;99.90;;;;;;5014131;28;20261;-56
2021/12/20 05:59:09;;;;;;;15.00;8.90;;;0.40;99.90;;;;;;5016193;28;20213;-57
2021/12/20 06:01:35;;;;;;;15.67;9.30;;;0.40;99.90;;;;;;5018417;28;20571;-57
2021/12/20 06:04:01;;;;;;;14.90;9.10;;;0.50;99.90;;;;;;5022265;28;20188;-55
2021/12/20 06:06:31;;;;;;;16.93;8.90;;;0.40;99.90;;;;;;5023389;28;20239;-56
2021/12/20 06:08:57;;;;;;;17.27;8.90;;;0.50;99.90;;;;;;5012825;28;20210;-58
2021/12/20 06:11:24;;;;;;;15.80;9.60;;;0.40;99.90;;;;;;5026150;28;20467;-57
2021/12/20 06:13:52;;;;;;;17.83;10.37;;;0.40;99.90;;;;;;5023973;28;20471;-56
2021/12/20 06:16:18;;;;;;;17.60;9.80;;;0.50;99.90;;;;;;5017890;28;20440;-59
2021/12/20 06:18:44;;;;;;;16.50;9.03;;;0.50;99.90;;;;;;5030965;28;20447;-58
2021/12/20 06:21:10;;;;;;;15.40;9.40;;;0.50;99.90;;;;;;5025811;28;20567;-56
2021/12/20 06:23:36;;;;;;;15.13;9.03;;;0.50;99.90;;;;;;5024159;28;20312;-58
2021/12/20 06:26:02;;;;;;;15.50;8.87;;;0.50;99.90;;;;;;5024838;28;20442;-58
2021/12/20 06:28:29;;;;;;;18.40;8.87;;;0.60;99.90;;;;;;5025169;28;20213;-55
2021/12/20 06:30:54;;;;;;;17.47;9.50;;;0.60;99.90;;;;;;5024791;28;20463;-58
2021/12/20 06:33:20;;;;;;;14.33;8.53;;;0.60;99.90;;;;;;5024692;28;20527;-57
2021/12/20 06:35:46;;;;;;;16.80;9.50;;;0.60;99.90;;;;;;5025021;28;20436;-56
2021/12/20 06:38:18;;;;;;;16.73;9.60;;;0.60;99.90;;;;;;5023292;28;20190;-57
2021/12/20 06:40:45;;;;;;;16.40;10.40;;;0.60;99.90;;;;;;5024116;28;20174;-56
2021/12/20 06:43:11;;;;;;;25.20;10.60;;;0.60;99.90;;;;;;5023197;28;20443;-56
2021/12/20 06:45:37;;;;;;;19.40;11.73;;;0.60;99.90;;;;;;5022703;28;20428;-57
2021/12/20 06:48:03;;;;;;;22.63;11.67;;;0.60;99.90;;;;;;5027294;28;20469;-56
2021/12/20 06:50:29;;;;;;;31.40;14.40;;;0.60;99.90;;;;;;5023842;28;20775;-57
2021/12/20 06:52:55;;;;;;;30.83;15.10;;;0.60;99.90;;;;;;5022267;28;20433;-56
2021/12/20 06:55:21;;;;;;;27.03;15.27;;;0.60;99.90;;;;;;5024893;28;20421;-55
2021/12/20 06:57:46;;;;;;;27.77;14.53;;;0.60;99.90;;;;;;5024304;28;20487;-55
2021/12/20 07:00:13;;;;;;;32.27;14.13;;;0.60;99.90;;;;;;5016411;28;20655;-56
2021/12/20 07:02:38;;;;;;;43.80;20.57;;;0.60;99.90;;;;;;4992055;28;20200;-57
2021/12/20 07:05:04;;;;;;;37.57;16.90;;;0.60;99.90;;;;;;5031823;28;20922;-56
2021/12/20 07:07:30;;;;;;;34.17;16.80;;;0.60;99.90;;;;;;5033145;28;20198;-57
2021/12/20 07:09:56;;;;;;;50.20;18.80;;;0.60;99.90;;;;;;5020177;28;20433;-56
2021/12/20 07:12:22;;;;;;;42.30;16.40;;;0.60;99.90;;;;;;5023066;28;20197;-55
2021/12/20 07:14:50;;;;;;;39.13;14.20;;;0.60;99.90;;;;;;5031989;28;20174;-56
2021/12/20 07:17:18;;;;;;;22.67;11.73;;;0.60;99.90;;;;;;5025927;28;20444;-58
2021/12/20 07:19:43;;;;;;;25.10;10.93;;;0.60;99.90;;;;;;5022249;28;20444;-55
2021/12/20 07:22:09;;;;;;;15.63;9.20;;;0.60;99.90;;;;;;5036419;28;20439;-55
2021/12/20 07:24:35;;;;;;;19.63;8.70;;;0.60;99.90;;;;;;4998604;28;20182;-56
2021/12/20 07:27:00;;;;;;;15.70;8.73;;;0.60;99.90;;;;;;5024962;28;20231;-58
2021/12/20 07:29:26;;;;;;;14.83;8.53;;;0.70;99.90;;;;;;5026571;28;20694;-57
2021/12/20 07:31:52;;;;;;;16.70;8.00;;;0.60;99.90;;;;;;5025327;28;20216;-57
2021/12/20 07:34:17;;;;;;;14.60;8.70;;;0.60;99.90;;;;;;5018711;28;20171;-56
2021/12/20 07:36:43;;;;;;;19.50;9.30;;;0.60;99.90;;;;;;5023558;28;20264;-56
2021/12/20 07:39:09;;;;;;;17.27;8.17;;;0.60;99.90;;;;;;5025258;28;20198;-56
2021/12/20 07:41:34;;;;;;;13.03;7.70;;;0.60;99.90;;;;;;5017926;28;20175;-57
2021/12/20 07:44:01;;;;;;;12.60;7.60;;;0.60;99.90;;;;;;5022421;28;20520;-57
2021/12/20 07:46:27;;;;;;;12.40;7.97;;;0.60;99.90;;;;;;5038104;28;20174;-55
2021/12/20 07:48:53;;;;;;;13.67;8.57;;;0.70;99.90;;;;;;5019434;28;20470;-56
2021/12/20 07:51:20;;;;;;;14.93;8.80;;;0.70;99.90;;;;;;5021329;28;20432;-55
2021/12/20 07:53:46;;;;;;;15.23;9.10;;;0.70;99.90;;;;;;5026708;28;20176;-55
2021/12/20 07:56:12;;;;;;;16.87;8.30;;;0.80;99.90;;;;;;5023304;28;20425;-57
2021/12/20 07:58:38;;;;;;;13.87;9.07;;;0.80;99.90;;;;;;5019846;28;20474;-55
2021/12/20 08:01:04;;;;;;;16.03;8.77;;;0.80;99.90;;;;;;5012564;28;20482;-55
2021/12/20 08:03:30;;;;;;;14.23;9.30;;;0.80;99.90;;;;;;5017280;28;20178;-57
2021/12/20 08:05:56;;;;;;;12.50;8.63;;;0.90;99.90;;;;;;5019306;28;20453;-58
2021/12/20 08:08:22;;;;;;;13.20;7.70;;;0.90;99.90;;;;;;5025691;28;20824;-52
2021/12/20 08:10:48;;;;;;;15.33;9.23;;;0.90;99.90;;;;;;5029225;28;20235;-56
2021/12/20 08:13:15;;;;;;;15.17;8.53;;;0.90;99.90;;;;;;5026848;28;20312;-56
2021/12/20 08:15:40;;;;;;;17.83;9.17;;;0.90;99.90;;;;;;5034177;28;20208;-58
2021/12/20 08:18:06;;;;;;;13.50;8.30;;;1.00;99.90;;;;;;5034992;28;20452;-57
2021/12/20 08:20:33;;;;;;;15.80;8.70;;;1.00;99.90;;;;;;5027306;28;20814;-57
2021/12/20 08:22:58;;;;;;;14.83;8.60;;;1.00;99.90;;;;;;5026727;28;20190;-57
2021/12/20 08:25:24;;;;;;;20.80;8.90;;;1.00;99.90;;;;;;5031335;28;20435;-56
2021/12/20 08:27:50;;;;;;;16.37;9.33;;;1.00;99.90;;;;;;5030804;28;20677;-56
2021/12/20 08:30:17;;;;;;;15.80;8.23;;;1.00;99.90;;;;;;5025564;28;20235;-55
2021/12/20 08:32:43;;;;;;;15.10;9.07;;;1.00;99.90;;;;;;5025109;28;20452;-57
2021/12/20 08:35:10;;;;;;;12.73;7.97;;;1.00;99.90;;;;;;5029274;28;20538;-58
2021/12/20 08:37:37;;;;;;;15.93;8.37;;;1.10;99.90;;;;;;5041368;28;20435;-57
2021/12/20 08:40:10;;;;;;;19.20;10.47;;;1.10;99.90;;;;;;5038281;28;20432;-55
2021/12/20 08:42:36;;;;;;;19.50;10.13;;;1.20;99.90;;;;;;5029073;28;20973;-56
2021/12/20 08:45:02;;;;;;;20.33;10.80;;;1.20;99.90;;;;;;5028543;28;20464;-57
2021/12/20 08:47:32;;;;;;;20.50;10.63;;;1.30;99.90;;;;;;5012412;28;20641;-55
2021/12/20 08:50:01;;;;;;;14.47;9.43;;;1.30;99.90;;;;;;5008424;28;20433;-57
2021/12/20 08:52:27;;;;;;;17.60;9.63;;;1.40;99.90;;;;;;4994869;28;20424;-57
2021/12/20 08:54:53;;;;;;;18.50;11.33;;;1.40;99.90;;;;;;5019388;28;20475;-56
2021/12/20 08:57:18;;;;;;;20.30;9.57;;;1.40;99.90;;;;;;5018722;28;20454;-56
2021/12/20 08:59:44;;;;;;;17.10;8.17;;;1.40;99.90;;;;;;5011643;28;20176;-58
2021/12/20 09:02:11;;;;;;;14.23;9.23;;;1.40;99.90;;;;;;5027217;28;20221;-57
2021/12/20 09:04:37;;;;;;;15.30;9.43;;;1.40;99.90;;;;;;5028642;28;20282;-55
2021/12/20 09:07:05;;;;;;;16.60;8.00;;;1.40;99.90;;;;;;5027876;28;20484;-55
2021/12/20 09:09:37;;;;;;;15.10;8.90;;;1.40;99.90;;;;;;5030114;28;20453;-55
2021/12/20 09:12:05;;;;;;;17.90;8.53;;;1.40;99.90;;;;;;5007821;28;20433;-59
2021/12/20 09:14:33;;;;;;;17.60;9.17;;;1.40;99.90;;;;;;5028888;28;20977;-58
2021/12/20 09:16:59;;;;;;;22.60;10.13;;;1.40;99.90;;;;;;5027789;28;20428;-57
2021/12/20 09:19:25;;;;;;;16.23;9.20;;;1.40;99.90;;;;;;5027196;28;20430;-57
2021/12/20 09:21:51;;;;;;;14.00;8.13;;;1.50;99.90;;;;;;5024632;28;20421;-60
2021/12/20 09:24:17;;;;;;;20.13;8.60;;;1.50;99.90;;;;;;5017856;28;20670;-55
2021/12/20 09:26:42;;;;;;;16.37;8.37;;;1.50;99.90;;;;;;5021719;28;20451;-56
2021/12/20 09:29:08;;;;;;;14.40;8.13;;;1.50;99.90;;;;;;5027410;28;20210;-53
2021/12/20 09:31:34;;;;;;;12.60;7.47;;;1.60;99.90;;;;;;5025131;28;20519;-52
2021/12/20 09:34:00;;;;;;;13.60;7.70;;;1.60;99.90;;;;;;5026801;28;20622;-51
2021/12/20 09:36:29;;;;;;;13.57;8.10;;;1.60;99.90;;;;;;5028169;28;20508;-57
2021/12/20 09:38:56;;;;;;;17.23;9.60;;;1.70;99.90;;;;;;5030987;28;20199;-57
2021/12/20 09:42:07;;;;;;;13.43;8.03;;;1.70;99.90;;;;;;5017297;28;20459;-57
2021/12/20 09:44:10;;;;;;;17.50;7.67;;;1.70;99.90;;;;;;5027837;28;20938;-59
2021/12/20 09:46:37;;;;;;;13.20;9.10;;;1.70;99.90;;;;;;5028680;28;20427;-57
2021/12/20 09:49:04;;;;;;;13.30;7.83;;;1.80;99.90;;;;;;5010573;28;20475;-57
2021/12/20 09:51:30;;;;;;;19.27;8.63;;;1.80;99.90;;;;;;5022485;28;20908;-58
2021/12/20 09:53:56;;;;;;;15.87;8.57;;;1.90;99.90;;;;;;5023643;28;20431;-53
2021/12/20 09:56:24;;;;;;;17.67;9.17;;;2.00;99.90;;;;;;5020662;28;20523;-55
2021/12/20 09:58:53;;;;;;;15.20;9.30;;;2.00;99.90;;;;;;5025754;28;20211;-57
2021/12/20 10:01:21;;;;;;;19.70;10.70;;;2.10;99.90;;;;;;5020873;28;20432;-58
2021/12/20 10:03:48;;;;;;;20.67;11.13;;;2.20;99.90;;;;;;5023935;28;20429;-58
2021/12/20 10:06:15;;;;;;;23.43;13.00;;;2.30;99.90;;;;;;5027650;28;20418;-56
2021/12/20 10:08:50;;;;;;;20.43;11.20;;;2.40;99.90;;;;;;5006362;28;20469;-58
2021/12/20 10:11:27;;;;;;;19.20;10.67;;;2.60;99.90;;;;;;5006742;28;20506;-56
2021/12/20 10:14:08;;;;;;;19.93;10.20;;;2.70;99.90;;;;;;5004913;28;20422;-57
2021/12/20 10:16:36;;;;;;;24.97;11.53;;;2.80;99.90;;;;;;5003252;28;20513;-56
2021/12/20 10:19:03;;;;;;;21.83;9.77;;;3.00;99.90;;;;;;5018420;28;20821;-60
2021/12/20 10:21:37;;;;;;;13.13;8.07;;;3.00;99.90;;;;;;5008426;28;20443;-58
2021/12/20 10:24:03;;;;;;;16.47;8.73;;;3.00;99.90;;;;;;5028838;28;20438;-57
2021/12/20 10:26:40;;;;;;;11.27;6.13;;;3.10;99.90;;;;;;5007502;28;20484;-57
2021/12/20 10:29:18;;;;;;;16.23;8.33;;;3.10;99.90;;;;;;5037741;23;20525;-60
2021/12/20 10:31:44;;;;;;;19.23;7.57;;;3.30;99.90;;;;;;5023242;28;20544;-59
2021/12/20 10:34:10;;;;;;;19.40;8.13;;;3.40;99.90;;;;;;5027197;28;20569;-60
2021/12/20 10:36:36;;;;;;;16.53;8.10;;;3.50;99.90;;;;;;5039609;28;20445;-63
2021/12/20 10:39:04;;;;;;;17.30;7.97;;;3.60;99.90;;;;;;5023739;28;20253;-60
2021/12/20 10:41:35;;;;;;;17.10;8.80;;;3.70;99.90;;;;;;5022906;28;20196;-62
2021/12/20 10:44:16;;;;;;;15.10;7.30;;;3.70;99.90;;;;;;5023254;28;20907;-61
2021/12/20 10:46:53;;;;;;;11.63;6.77;;;3.70;99.90;;;;;;5022147;28;20426;-60
2021/12/20 10:49:25;;;;;;;14.30;6.93;;;3.70;99.90;;;;;;5027642;28;20891;-63
2021/12/20 10:51:52;;;;;;;13.50;6.40;;;3.60;99.90;;;;;;5026475;28;20464;-61
2021/12/20 10:54:22;;;;;;;12.10;6.80;;;3.60;99.90;;;;;;5024558;28;20437;-59
2021/12/20 10:56:52;;;;;;;11.63;6.17;;;3.50;99.90;;;;;;5023569;28;21330;-60
2021/12/20 10:59:27;;;;;;;11.60;6.00;;;3.50;99.90;;;;;;5031183;28;20466;-59
2021/12/20 11:04:26;;;;;;;9.87;5.10;;;3.50;99.90;;;;;;5021393;28;20452;-59
2021/12/20 11:09:37;;;;;;;13.63;5.30;;;3.40;99.90;;;;;;5029733;28;20464;-59
2021/12/20 11:12:06;;;;;;;10.47;5.43;;;3.50;99.90;;;;;;5023644;28;20788;-59
2021/12/20 11:14:45;;;;;;;9.63;5.53;;;3.60;99.90;;;;;;5022674;28;20560;-61
2021/12/20 11:17:14;;;;;;;8.33;4.60;;;3.90;99.90;;;;;;5028408;28;20437;-59
2021/12/20 11:19:51;;;;;;;12.07;5.10;;;4.10;99.80;;;;;;5026915;28;20442;-60
2021/12/20 11:22:19;;;;;;;9.17;4.10;;;4.30;98.20;;;;;;5027925;28;20434;-59
2021/12/20 11:24:50;;;;;;;8.10;4.87;;;4.50;96.00;;;;;;5047973;28;20425;-63
2021/12/20 11:27:18;;;;;;;4.10;3.50;;;4.70;94.60;;;;;;5025390;28;20964;-59
2021/12/20 11:29:47;;;;;;;8.30;3.87;;;4.80;92.60;;;;;;5025009;28;20524;-60
2021/12/20 11:32:13;;;;;;;6.90;3.53;;;5.00;91.00;;;;;;5050616;28;20519;-60
2021/12/20 11:34:42;;;;;;;3.80;2.67;;;5.10;88.10;;;;;;5018515;28;20424;-59
2021/12/20 11:37:14;;;;;;;4.27;2.77;;;5.10;82.80;;;;;;5020798;28;20505;-60
2021/12/20 11:39:41;;;;;;;5.03;2.83;;;5.00;81.20;;;;;;5028492;28;20442;-59
2021/12/20 11:42:09;;;;;;;6.63;2.80;;;4.90;77.90;;;;;;5026194;28;20454;-59
2021/12/20 11:44:37;;;;;;;5.83;3.30;;;4.80;77.30;;;;;;5042602;28;20434;-61
2021/12/20 11:47:15;;;;;;;6.10;2.70;;;4.70;80.90;;;;;;5030800;28;20445;-60
2021/12/20 11:49:41;;;;;;;3.10;2.10;;;4.60;79.70;;;;;;5029102;28;20460;-61
2021/12/20 11:52:13;;;;;;;5.70;2.73;;;4.40;75.80;;;;;;5026921;28;20542;-60
2021/12/20 11:54:40;;;;;;;7.20;2.63;;;4.30;78.30;;;;;;5014351;28;20178;-60
2021/12/20 11:57:27;;;;;;;3.93;2.80;;;4.20;80.30;;;;;;5024620;28;20463;-60
2021/12/20 12:00:05;;;;;;;10.47;2.80;;;4.20;81.90;;;;;;5025966;28;20426;-61
2021/12/20 12:02:33;;;;;;;7.70;2.93;;;4.20;81.20;;;;;;5024047;28;20518;-67
2021/12/20 12:05:09;;;;;;;7.97;2.93;;;4.20;77.00;;;;;;5024339;28;20797;-61
2021/12/20 12:07:36;;;;;;;8.47;2.70;;;4.20;78.10;;;;;;5021889;28;20433;-60
2021/12/20 12:10:07;;;;;;;5.20;2.53;;;4.20;76.40;;;;;;5017462;28;20426;-66
2021/12/20 12:12:39;;;;;;;6.37;3.07;;;4.20;75.90;;;;;;5024010;28;21468;-60
2021/12/20 12:15:44;;;;;;;7.07;2.77;;;4.20;75.10;;;;;;5026706;28;20909;-60
2021/12/20 12:18:10;;;;;;;10.63;3.00;;;4.30;75.70;;;;;;5018791;28;20477;-61
2021/12/20 12:20:51;;;;;;;4.93;2.83;;;4.30;75.80;;;;;;5024108;28;20513;-61
2021/12/20 12:23:27;;;;;;;6.23;2.67;;;4.30;74.90;;;;;;5017567;28;20430;-61
2021/12/20 12:25:55;;;;;;;8.60;3.40;;;4.30;73.80;;;;;;5021492;28;20560;-61
2021/12/20 12:28:26;;;;;;;4.57;2.83;;;4.30;72.60;;;;;;5025329;28;20889;-60
2021/12/20 12:30:56;;;;;;;5.90;2.50;;;4.20;72.90;;;;;;5026034;28;20433;-61
2021/12/20 12:33:24;;;;;;;8.23;5.80;;;4.20;73.90;;;;;;5015515;28;20430;-61
2021/12/20 12:35:52;;;;;;;5.50;2.87;;;4.20;75.30;;;;;;5025769;28;21057;-64
2021/12/20 12:38:25;;;;;;;7.27;2.80;;;4.20;79.40;;;;;;5011033;28;21239;-60
2021/12/20 12:41:09;;;;;;;8.40;3.30;;;4.20;81.90;;;;;;5019680;28;20514;-61
2021/12/20 12:43:54;;;;;;;9.97;4.20;;;4.20;83.30;;;;;;5016481;28;20474;-60
2021/12/20 12:46:39;;;;;;;8.87;4.37;;;4.30;83.20;;;;;;5021915;28;20448;-61
2021/12/20 12:49:25;;;;;;;6.67;3.77;;;4.30;85.10;;;;;;5017616;28;20527;-60
2021/12/20 12:51:56;;;;;;;12.90;3.73;;;4.30;82.30;;;;;;5017669;28;20419;-61
2021/12/20 12:54:34;;;;;;;6.80;4.77;;;4.30;81.30;;;;;;5020167;28;20438;-61
2021/12/20 12:57:22;;;;;;;10.47;4.67;;;4.30;81.40;;;;;;5025041;28;21244;-59
2021/12/20 12:59:54;;;;;;;7.30;4.40;;;4.20;81.50;;;;;;5017883;28;20537;-65
2021/12/20 13:02:25;;;;;;;9.77;4.67;;;4.10;82.10;;;;;;5011222;28;20443;-61
2021/12/20 13:05:06;;;;;;;15.93;6.87;;;4.00;84.20;;;;;;5036767;28;20438;-61
2021/12/20 13:07:45;;;;;;;16.10;3.83;;;4.00;87.40;;;;;;5016329;28;20437;-60